Vandalia, IL (62471)

7:38 AM CDT on September 23, 2014 (GMT -0500)
0IL2 - Griffin Airport | Change Station
CLOSE
Current Station
Personal Weather Station
Location: Alma, IL
Elevation: 560 ft
Nearby Weather Stations

Elev 560 ft 38.80 °N, 89.00 °W | Updated 2 seconds ago

Clear
Clear
46.6 °F
Feels Like 47 °F
N
0.0
Wind Variable Wind from North
Gusts 0.0 mph

Today
High -- | Low -- °F
--% Chance of Precip.
Yesterday
High -- | Low -- °F
Precip. -- in
6:45 AM 6:51 PM
Waning Crescent, 1% visible
Pressure 30.32 in
Visibility 7.0 miles
Clouds Clear
Windchill 47 °F
Dew Point 46 °F
Humidity 96%
Rainfall 0.01 in
Snow Depth Not available.
UV 0 out of 12
Pollen 4.60 out of 12
Air Quality Not available.
Flu Activity Not available.
METAR KSLO 231215Z AUTO 00000KT 7SM CLR 08/07 A3032 RMK AO2 T00750072

More Conditions Fewer Conditions

Pressure 30.32 in
Visibility 7.0 miles
Clouds Clear
Windchill 47 °F
Dew Point 46 °F
Humidity 96%
Rainfall 0.01 in
Snow Depth Not available.
UV 0 out of 12
Pollen 4.60 out of 12
Air Quality Not available.
Flu Activity Not available.
METAR KSLO 231215Z AUTO 00000KT 7SM CLR 08/07 A3032 RMK AO2 T00750072

More Conditions Fewer Conditions

10-Day Weather Forecast

Almanac

Astronomy

Sep. 23, 2014 Rise Set
Actual Time 6:45 AM CDT 6:51 PM CDT
Civil Twilight 6:18 AM CDT 7:18 PM CDT
Nautical Twilight 5:47 AM CDT 7:49 PM CDT
Astronomical Twilight 5:15 AM CDT 8:21 PM CDT
Moon 6:09 AM CDT 6:30 PM CDT
Length of Visible Light 13h 00m
Length of Day
12h 06m
Tomorrow will be 2m 32s shorter.
Waning Crescent, 1% of the Moon is Illuminated
Today
Waning Crescent
Sep 24
New
Oct 1
First Quarter
Oct 8
Full
Oct 15
Last Quarter

Today's Extremes

State Highs State Lows

Community

WunderPhotos

Upload Photos

1,755,662 photos uploaded!

WunderBlogs® & News

Nearby

Snow Depth

Station Depth Elevation
No new snow has been reported.

Earthquake Activity

City Distance Mag. Time & Date
No recent earthquake activity has been reported nearby.
Minimum magnitude displayed is 2.5.

Coastal Water Temperatures

Place Temperature
No Stations Reporting

Nearby Weather Stations